createdAt,value
2024-01-21T00:00:11.730Z,15.35
2024-01-21T00:02:39.667Z,14.81
2024-01-21T00:05:06.528Z,14.32
2024-01-21T00:07:33.162Z,14.77
2024-01-21T00:09:59.841Z,14.91
2024-01-21T00:12:26.520Z,15.32
2024-01-21T00:14:53.147Z,15.43
2024-01-21T00:17:19.856Z,15.31
2024-01-21T00:19:46.517Z,15.27
2024-01-21T00:22:13.553Z,14.98
2024-01-21T00:24:40.225Z,15.39
2024-01-21T00:27:06.981Z,15.04
2024-01-21T00:29:33.615Z,15.09
2024-01-21T00:32:00.352Z,14.32
2024-01-21T00:34:29.654Z,14.50
2024-01-21T00:36:56.538Z,14.91
2024-01-21T00:39:23.223Z,14.08
2024-01-21T00:41:58.023Z,15.13
2024-01-21T00:44:31.464Z,14.48
2024-01-21T00:46:58.202Z,14.40
2024-01-21T00:49:24.910Z,14.52
2024-01-21T00:51:51.627Z,13.61
2024-01-21T00:54:18.389Z,13.85
2024-01-21T00:56:45.009Z,13.74
2024-01-21T00:59:11.580Z,13.74
2024-01-21T01:01:39.603Z,13.26
2024-01-21T01:04:06.828Z,12.87
2024-01-21T01:06:36.189Z,12.69
2024-01-21T01:09:02.823Z,12.67
2024-01-21T01:11:29.570Z,12.48
2024-01-21T01:13:56.184Z,12.41
2024-01-21T01:16:23.652Z,12.16
2024-01-21T01:18:51.019Z,12.01
2024-01-21T01:21:17.974Z,11.70
2024-01-21T01:23:44.717Z,11.84
2024-01-21T01:26:11.361Z,11.78
2024-01-21T01:28:39.795Z,11.32
2024-01-21T01:31:08.105Z,11.79
2024-01-21T01:33:34.866Z,11.32
2024-01-21T01:36:01.487Z,10.59
2024-01-21T01:38:28.080Z,10.41
2024-01-21T01:40:54.728Z,10.50
2024-01-21T01:43:21.301Z,10.00
2024-01-21T01:45:48.034Z,10.09
2024-01-21T01:48:15.090Z,9.30
2024-01-21T01:50:41.878Z,9.55
2024-01-21T01:53:08.748Z,9.62
2024-01-21T01:55:35.775Z,8.91
2024-01-21T01:58:02.630Z,9.40
2024-01-21T02:00:29.580Z,9.15
2024-01-21T02:02:56.478Z,8.57
2024-01-21T02:05:23.276Z,8.49
2024-01-21T02:07:49.959Z,8.57
2024-01-21T02:10:16.654Z,8.01
2024-01-21T02:12:46.314Z,8.18
2024-01-21T02:15:15.805Z,8.41
2024-01-21T02:17:42.621Z,8.22
2024-01-21T02:20:10.747Z,8.44
2024-01-21T02:22:42.481Z,8.46
2024-01-21T02:25:10.230Z,7.91
2024-01-21T02:27:39.453Z,8.37
2024-01-21T02:30:06.795Z,8.07
2024-01-21T02:32:33.497Z,7.68
2024-01-21T02:35:00.076Z,7.69
2024-01-21T02:37:26.741Z,7.53
2024-01-21T02:39:53.414Z,8.10
2024-01-21T02:42:20.005Z,8.36
2024-01-21T02:44:46.591Z,7.89
2024-01-21T02:47:13.239Z,8.11
2024-01-21T02:49:39.977Z,8.27
2024-01-21T02:52:06.694Z,8.36
2024-01-21T02:54:33.327Z,8.23
2024-01-21T02:56:59.947Z,8.21
2024-01-21T02:59:26.694Z,8.04
2024-01-21T03:01:53.322Z,7.97
2024-01-21T03:04:19.879Z,8.13
2024-01-21T03:06:46.546Z,8.20
2024-01-21T03:09:13.158Z,8.13
2024-01-21T03:11:39.858Z,7.87
2024-01-21T03:14:07.340Z,7.71
2024-01-21T03:16:34.428Z,7.77
2024-01-21T03:19:01.075Z,7.61
2024-01-21T03:21:27.779Z,7.86
2024-01-21T03:23:54.378Z,7.77
2024-01-21T03:26:21.118Z,7.87
2024-01-21T03:28:47.689Z,7.78
2024-01-21T03:31:14.256Z,7.87
2024-01-21T03:33:41.095Z,8.32
2024-01-21T03:36:07.814Z,7.87
2024-01-21T03:38:34.433Z,7.71
2024-01-21T03:41:01.055Z,8.04
2024-01-21T03:43:27.712Z,8.20
2024-01-21T03:45:54.526Z,8.02
2024-01-21T03:48:21.253Z,7.89
2024-01-21T03:50:47.884Z,7.56
2024-01-21T03:53:14.452Z,7.64
2024-01-21T03:55:41.111Z,7.87
2024-01-21T03:58:07.694Z,7.86
2024-01-21T04:00:34.286Z,8.03
2024-01-21T04:03:00.944Z,7.58
2024-01-21T04:05:27.584Z,8.04
2024-01-21T04:07:54.167Z,8.20
2024-01-21T04:10:20.761Z,7.81
2024-01-21T04:12:47.384Z,7.69
2024-01-21T04:15:14.155Z,7.60
2024-01-21T04:17:41.020Z,7.93
2024-01-21T04:20:08.776Z,7.88
2024-01-21T04:22:35.807Z,7.29
2024-01-21T04:25:02.405Z,7.18
2024-01-21T04:27:29.043Z,7.25
2024-01-21T04:29:55.663Z,7.06
2024-01-21T04:32:22.296Z,7.11
2024-01-21T04:34:48.969Z,7.35
2024-01-21T04:37:15.664Z,7.12
2024-01-21T04:39:42.324Z,7.11
2024-01-21T04:42:08.913Z,7.03
2024-01-21T04:44:35.540Z,7.37
2024-01-21T04:47:02.130Z,7.37
2024-01-21T04:49:28.771Z,7.07
2024-01-21T04:51:55.884Z,7.08
2024-01-21T04:54:22.611Z,7.38
2024-01-21T04:56:49.234Z,7.62
2024-01-21T04:59:15.809Z,7.58
2024-01-21T05:01:42.482Z,7.91
2024-01-21T05:04:09.895Z,7.37
2024-01-21T05:06:36.633Z,7.48
2024-01-21T05:09:03.443Z,7.31
2024-01-21T05:11:31.066Z,7.51
2024-01-21T05:13:57.830Z,7.51
2024-01-21T05:16:24.473Z,7.73
2024-01-21T05:18:51.228Z,7.69
2024-01-21T05:21:22.071Z,7.81
2024-01-21T05:23:52.547Z,7.76
2024-01-21T05:26:19.222Z,8.06
2024-01-21T05:28:46.884Z,7.99
2024-01-21T05:31:13.717Z,7.91
2024-01-21T05:33:41.388Z,7.87
2024-01-21T05:36:09.586Z,8.14
2024-01-21T05:38:36.212Z,8.43
2024-01-21T05:41:02.792Z,8.17
2024-01-21T05:43:29.357Z,8.17
2024-01-21T05:45:56.022Z,8.28
2024-01-21T05:48:22.817Z,8.66
2024-01-21T05:50:49.498Z,8.48
2024-01-21T05:53:16.166Z,8.37
2024-01-21T05:55:42.799Z,8.69
2024-01-21T05:58:09.371Z,8.48
2024-01-21T06:00:36.001Z,8.55
2024-01-21T06:03:02.653Z,8.21
2024-01-21T06:05:29.404Z,8.48
2024-01-21T06:07:56.059Z,8.65
2024-01-21T06:10:22.661Z,8.72
2024-01-21T06:12:49.379Z,8.98
2024-01-21T06:15:16.118Z,9.26
2024-01-21T06:17:42.935Z,9.22
2024-01-21T06:20:10.261Z,9.14
2024-01-21T06:22:39.912Z,9.39
2024-01-21T06:25:06.732Z,9.53
2024-01-21T06:27:33.420Z,9.49
2024-01-21T06:30:19.437Z,9.83
2024-01-21T06:32:53.989Z,9.71
2024-01-21T06:35:28.220Z,9.87
2024-01-21T06:37:55.082Z,9.86
2024-01-21T06:40:21.707Z,9.65
2024-01-21T06:42:48.414Z,9.37
2024-01-21T06:45:15.726Z,8.90
2024-01-21T06:47:42.876Z,9.25
2024-01-21T06:50:12.943Z,9.90
2024-01-21T06:52:40.103Z,9.79
2024-01-21T06:55:07.595Z,9.68
2024-01-21T06:57:34.368Z,10.08
2024-01-21T07:00:01.253Z,9.91
2024-01-21T07:02:27.895Z,9.87
2024-01-21T07:04:54.595Z,9.53
2024-01-21T07:07:21.231Z,9.28
2024-01-21T07:09:47.996Z,10.20
2024-01-21T07:12:14.712Z,9.51
2024-01-21T07:14:41.341Z,10.02
2024-01-21T07:17:07.983Z,10.27
2024-01-21T07:19:34.752Z,10.23
2024-01-21T07:22:01.515Z,9.54
2024-01-21T07:24:28.267Z,9.93
2024-01-21T07:26:54.999Z,10.20
2024-01-21T07:29:21.636Z,9.83
2024-01-21T07:31:48.309Z,9.86
2024-01-21T07:34:15.062Z,9.57
2024-01-21T07:36:41.762Z,10.16
2024-01-21T07:39:08.440Z,10.17
2024-01-21T07:41:35.052Z,10.29
2024-01-21T07:44:01.687Z,9.89
2024-01-21T07:46:28.255Z,10.21
2024-01-21T07:48:54.962Z,9.72
2024-01-21T07:51:21.686Z,9.91
2024-01-21T07:53:48.401Z,10.00
2024-01-21T07:56:15.060Z,9.68
2024-01-21T07:58:42.171Z,10.00
2024-01-21T08:01:13.615Z,10.01
2024-01-21T08:03:41.385Z,10.21
2024-01-21T08:06:09.134Z,10.28
2024-01-21T08:08:36.215Z,10.27
2024-01-21T08:11:02.987Z,9.49
2024-01-21T08:13:29.620Z,9.53
2024-01-21T08:15:56.388Z,9.90
2024-01-21T08:18:23.225Z,9.97
2024-01-21T08:20:49.848Z,9.96
2024-01-21T08:23:16.591Z,10.11
2024-01-21T08:25:43.460Z,9.74
2024-01-21T08:28:10.162Z,9.87
2024-01-21T08:30:36.880Z,9.92
2024-01-21T08:33:03.851Z,10.02
2024-01-21T08:35:30.932Z,9.97
2024-01-21T08:37:57.562Z,9.93
2024-01-21T08:40:24.154Z,10.13
2024-01-21T08:42:50.818Z,9.96
2024-01-21T08:45:17.547Z,9.87
2024-01-21T08:47:44.676Z,9.66
2024-01-21T08:50:11.356Z,10.27
2024-01-21T08:52:37.956Z,9.30
2024-01-21T08:55:05.449Z,9.77
2024-01-21T08:57:32.330Z,10.10
2024-01-21T08:59:58.924Z,9.82
2024-01-21T09:02:25.535Z,9.66
2024-01-21T09:04:52.124Z,10.08
2024-01-21T09:07:18.907Z,10.12
2024-01-21T09:09:45.633Z,9.87
2024-01-21T09:12:15.551Z,9.77
2024-01-21T09:14:42.738Z,9.79
2024-01-21T09:17:09.328Z,10.46
2024-01-21T09:19:36.000Z,10.23
2024-01-21T09:22:02.945Z,9.58
2024-01-21T09:24:29.598Z,9.89
2024-01-21T09:26:56.595Z,9.53
2024-01-21T09:29:23.179Z,9.36
2024-01-21T09:31:57.296Z,10.11
2024-01-21T09:34:24.528Z,9.78
2024-01-21T09:36:54.875Z,9.61
2024-01-21T09:39:21.889Z,10.10
2024-01-21T09:41:50.804Z,10.05
2024-01-21T09:44:28.047Z,9.45
2024-01-21T09:46:56.853Z,9.64
2024-01-21T09:49:25.156Z,9.63
2024-01-21T09:51:53.296Z,10.01
2024-01-21T09:54:21.699Z,9.62
2024-01-21T09:56:48.795Z,9.65
2024-01-21T09:59:17.202Z,10.05
2024-01-21T10:01:44.475Z,9.80
2024-01-21T10:04:13.321Z,9.79
2024-01-21T10:06:40.274Z,10.29
2024-01-21T10:09:18.273Z,10.02
2024-01-21T10:11:55.522Z,10.50
2024-01-21T10:14:22.156Z,10.55
2024-01-21T10:16:50.571Z,10.36
2024-01-21T10:19:29.248Z,10.51
2024-01-21T10:22:16.347Z,10.11
2024-01-21T10:24:44.705Z,10.10
2024-01-21T10:27:12.475Z,10.17
2024-01-21T10:29:42.537Z,10.42
2024-01-21T10:32:11.079Z,10.07
2024-01-21T10:34:46.460Z,10.56
2024-01-21T10:37:17.085Z,10.69
2024-01-21T10:39:50.858Z,10.93
2024-01-21T10:42:18.388Z,10.99
2024-01-21T10:44:45.584Z,10.48
2024-01-21T10:47:13.977Z,10.00
2024-01-21T10:49:42.112Z,10.73
2024-01-21T10:52:12.649Z,10.80
2024-01-21T10:54:40.000Z,10.66
2024-01-21T10:57:07.560Z,10.81
2024-01-21T10:59:37.340Z,10.36
2024-01-21T11:02:04.059Z,10.66
2024-01-21T11:04:30.774Z,10.83
2024-01-21T11:06:57.599Z,10.41
2024-01-21T11:09:27.265Z,10.48
2024-01-21T11:11:56.324Z,10.39
2024-01-21T11:14:29.340Z,10.57
2024-01-21T11:16:57.996Z,10.32
2024-01-21T11:19:25.421Z,11.09
2024-01-21T11:21:56.883Z,10.77
2024-01-21T11:24:31.061Z,10.67
2024-01-21T11:26:59.462Z,10.58
2024-01-21T11:29:33.766Z,10.81
2024-01-21T11:32:03.044Z,11.00
2024-01-21T11:34:39.753Z,10.69
2024-01-21T11:37:08.953Z,10.44
2024-01-21T11:39:36.277Z,10.60
2024-01-21T11:42:04.123Z,10.78
2024-01-21T11:44:32.261Z,10.76
2024-01-21T11:47:02.781Z,10.90
2024-01-21T11:49:33.563Z,10.37
2024-01-21T11:52:01.914Z,10.41
2024-01-21T11:54:29.370Z,10.54
2024-01-21T11:56:56.655Z,10.37
2024-01-21T11:59:25.768Z,10.20
2024-01-21T12:02:00.639Z,10.45
2024-01-21T12:04:28.403Z,10.45
2024-01-21T12:06:56.538Z,10.78
2024-01-21T12:09:24.365Z,11.04
2024-01-21T12:11:51.691Z,10.99
2024-01-21T12:14:18.825Z,10.88
2024-01-21T12:16:51.050Z,11.24
2024-01-21T12:19:19.553Z,10.91
2024-01-21T12:21:46.727Z,11.38
2024-01-21T12:24:13.477Z,10.79
2024-01-21T12:26:40.098Z,10.37
2024-01-21T12:29:11.091Z,11.21
2024-01-21T12:31:39.742Z,10.60
2024-01-21T12:34:08.823Z,11.42
2024-01-21T12:36:37.603Z,10.84
2024-01-21T12:39:07.689Z,10.96
2024-01-21T12:41:35.366Z,10.98
2024-01-21T12:44:02.197Z,11.11
2024-01-21T12:46:29.124Z,10.42
2024-01-21T12:48:55.799Z,10.76
2024-01-21T12:51:24.736Z,11.86
2024-01-21T12:53:53.167Z,11.22
2024-01-21T12:56:21.236Z,11.02
2024-01-21T12:58:48.614Z,10.78
2024-01-21T13:01:17.034Z,10.75
2024-01-21T13:03:44.503Z,10.71
2024-01-21T13:06:11.614Z,10.74
2024-01-21T13:08:41.434Z,10.79
2024-01-21T13:11:08.462Z,10.72
2024-01-21T13:13:35.114Z,11.00
2024-01-21T13:16:02.918Z,11.29
2024-01-21T13:18:33.494Z,11.30
2024-01-21T13:21:00.209Z,11.16
2024-01-21T13:23:26.897Z,11.17
2024-01-21T13:25:53.928Z,11.36
2024-01-21T13:28:23.327Z,11.18
2024-01-21T13:30:54.632Z,11.16
2024-01-21T13:33:23.870Z,11.31
2024-01-21T13:35:51.920Z,11.17
2024-01-21T13:38:18.544Z,11.23
2024-01-21T13:40:45.242Z,11.34
2024-01-21T13:43:11.921Z,11.66
2024-01-21T13:45:40.317Z,11.82
2024-01-21T13:48:08.070Z,11.70
2024-01-21T13:50:35.118Z,11.62
2024-01-21T13:53:02.778Z,11.89
2024-01-21T13:55:29.391Z,11.79
2024-01-21T13:57:56.263Z,11.84
2024-01-21T14:00:26.389Z,11.57
2024-01-21T14:02:56.171Z,11.94
2024-01-21T14:05:23.966Z,11.46
2024-01-21T14:07:51.407Z,11.61
2024-01-21T14:10:18.904Z,11.84
2024-01-21T14:12:46.273Z,11.19
2024-01-21T14:15:13.069Z,11.56
2024-01-21T14:17:39.863Z,11.76
2024-01-21T14:20:10.126Z,11.31
2024-01-21T14:22:40.139Z,11.38
2024-01-21T14:25:18.344Z,12.89
2024-01-21T14:27:44.984Z,12.75
2024-01-21T14:30:18.340Z,11.83
2024-01-21T14:32:45.328Z,12.47
2024-01-21T14:35:12.259Z,11.45
2024-01-21T14:37:38.984Z,11.32
2024-01-21T14:40:06.111Z,11.62
2024-01-21T14:42:33.668Z,11.52
2024-01-21T14:45:00.314Z,11.36
2024-01-21T14:47:26.910Z,11.35
2024-01-21T14:49:53.570Z,10.79
2024-01-21T14:52:20.241Z,11.58
2024-01-21T14:54:47.171Z,11.74
2024-01-21T14:57:13.803Z,11.38
2024-01-21T14:59:40.573Z,12.16
2024-01-21T15:02:07.343Z,11.54
2024-01-21T15:04:34.187Z,12.25
2024-01-21T15:07:01.162Z,11.74
2024-01-21T15:09:28.439Z,12.02
2024-01-21T15:11:55.049Z,11.43
2024-01-21T15:14:45.826Z,11.71
2024-01-21T15:17:14.558Z,11.68
2024-01-21T15:19:44.860Z,11.82
2024-01-21T15:22:12.409Z,11.91
2024-01-21T15:24:40.032Z,11.93
2024-01-21T15:27:06.830Z,11.84
2024-01-21T15:29:33.603Z,11.67
2024-01-21T15:32:00.447Z,11.52
2024-01-21T15:34:27.136Z,11.47
2024-01-21T15:36:53.823Z,11.76
2024-01-21T15:39:20.540Z,11.26
2024-01-21T15:41:47.757Z,11.67
2024-01-21T15:44:17.585Z,13.30
2024-01-21T15:46:47.371Z,12.40
2024-01-21T15:49:14.265Z,11.95
2024-01-21T15:51:42.068Z,12.09
2024-01-21T15:54:10.409Z,12.11
2024-01-21T15:56:37.610Z,11.91
2024-01-21T15:59:04.820Z,12.46
2024-01-21T16:01:31.758Z,12.37
2024-01-21T16:03:59.340Z,11.85
2024-01-21T16:06:26.305Z,12.13
2024-01-21T16:08:53.331Z,12.62
2024-01-21T16:11:20.107Z,12.45
2024-01-21T16:13:46.935Z,12.79
2024-01-21T16:16:13.727Z,12.67
2024-01-21T16:18:40.556Z,12.72
2024-01-21T16:21:09.352Z,13.09
2024-01-21T16:23:36.222Z,12.71
2024-01-21T16:26:02.856Z,12.44
2024-01-21T16:28:29.487Z,11.94
2024-01-21T16:30:56.188Z,12.38
2024-01-21T16:33:24.610Z,12.67
2024-01-21T16:35:52.418Z,12.66
2024-01-21T16:38:19.139Z,12.19
2024-01-21T16:40:45.981Z,12.40
2024-01-21T16:43:12.706Z,11.84
2024-01-21T16:45:39.590Z,11.91
2024-01-21T16:48:07.069Z,12.27
2024-01-21T16:50:33.827Z,12.31
2024-01-21T16:53:09.472Z,12.16
2024-01-21T16:55:36.118Z,12.59
2024-01-21T16:58:02.830Z,12.21
2024-01-21T17:00:36.304Z,12.24
2024-01-21T17:03:03.488Z,12.05
2024-01-21T17:05:30.215Z,12.22
2024-01-21T17:07:56.892Z,12.30
2024-01-21T17:10:54.718Z,12.19
2024-01-21T17:13:21.359Z,12.69
2024-01-21T17:15:47.984Z,12.50
2024-01-21T17:18:22.331Z,12.65
2024-01-21T17:20:49.897Z,12.73
2024-01-21T17:23:16.539Z,12.22
2024-01-21T17:25:43.283Z,11.97
2024-01-21T17:28:11.179Z,11.96
2024-01-21T17:30:37.776Z,12.77
2024-01-21T17:33:04.805Z,12.28
2024-01-21T17:35:31.510Z,13.12
2024-01-21T17:37:58.453Z,12.72
2024-01-21T17:40:25.434Z,12.54
2024-01-21T17:42:52.303Z,12.21
2024-01-21T17:45:19.013Z,12.14
2024-01-21T17:47:46.662Z,12.03
2024-01-21T17:50:13.742Z,12.95
2024-01-21T17:52:41.951Z,12.41
2024-01-21T17:55:08.916Z,12.08
2024-01-21T17:57:36.484Z,12.77
2024-01-21T18:00:05.884Z,12.38
2024-01-21T18:02:32.919Z,12.16
2024-01-21T18:04:59.799Z,12.32
2024-01-21T18:07:26.493Z,12.41
2024-01-21T18:09:53.185Z,12.39
2024-01-21T18:12:20.703Z,12.27
2024-01-21T18:14:47.316Z,12.78
2024-01-21T18:17:14.037Z,12.39
2024-01-21T18:19:42.410Z,11.84
2024-01-21T18:22:13.076Z,12.27
2024-01-21T18:24:41.115Z,11.99
2024-01-21T18:27:08.153Z,12.40
2024-01-21T18:29:36.280Z,12.25
2024-01-21T18:32:07.151Z,11.98
2024-01-21T18:34:34.966Z,12.20
2024-01-21T18:37:03.834Z,12.30
2024-01-21T18:39:31.296Z,12.60
2024-01-21T18:41:58.325Z,11.75
2024-01-21T18:44:25.164Z,11.97
2024-01-21T18:46:53.044Z,12.18
2024-01-21T18:49:20.905Z,12.08
2024-01-21T18:51:49.178Z,11.98
2024-01-21T18:54:16.473Z,11.59
2024-01-21T18:56:43.198Z,12.44
2024-01-21T18:59:10.088Z,12.15
2024-01-21T19:01:37.022Z,12.32
2024-01-21T19:04:03.667Z,12.25
2024-01-21T19:06:30.409Z,11.93
2024-01-21T19:08:57.065Z,11.88
2024-01-21T19:11:23.907Z,11.81
2024-01-21T19:13:52.795Z,11.94
2024-01-21T19:16:19.558Z,11.43
2024-01-21T19:18:47.211Z,11.76
2024-01-21T19:21:15.857Z,12.02
2024-01-21T19:23:42.540Z,11.50
2024-01-21T19:26:13.694Z,10.90
2024-01-21T19:28:40.563Z,11.29
2024-01-21T19:31:07.203Z,10.92
2024-01-21T19:33:33.831Z,11.38
2024-01-21T19:36:00.643Z,11.71
2024-01-21T19:38:27.215Z,11.11
2024-01-21T19:40:53.805Z,11.08
2024-01-21T19:43:23.237Z,10.26
2024-01-21T19:45:49.848Z,10.53
2024-01-21T19:48:16.519Z,10.58
2024-01-21T19:50:43.152Z,10.69
2024-01-21T19:53:09.784Z,10.85
2024-01-21T19:55:36.977Z,10.42
2024-01-21T19:58:05.953Z,10.90
2024-01-21T20:00:32.624Z,10.31
2024-01-21T20:02:59.347Z,10.71
2024-01-21T20:05:26.011Z,10.68
2024-01-21T20:07:52.684Z,10.72
2024-01-21T20:10:20.901Z,10.66
2024-01-21T20:12:47.493Z,10.03
2024-01-21T20:15:14.228Z,10.22
2024-01-21T20:17:40.963Z,10.29
2024-01-21T20:20:07.996Z,10.13
2024-01-21T20:22:34.621Z,10.18
2024-01-21T20:25:01.467Z,10.12
2024-01-21T20:27:28.064Z,10.37
2024-01-21T20:29:54.882Z,9.88
2024-01-21T20:32:21.540Z,10.29
2024-01-21T20:34:49.149Z,10.05
2024-01-21T20:37:15.705Z,10.04
2024-01-21T20:39:42.316Z,9.89
2024-01-21T20:42:14.669Z,9.62
2024-01-21T20:44:41.422Z,9.41
2024-01-21T20:47:08.068Z,9.80
2024-01-21T20:49:36.188Z,9.59
2024-01-21T20:52:02.864Z,9.23
2024-01-21T20:54:32.755Z,9.39
2024-01-21T20:56:59.457Z,9.14
2024-01-21T20:59:26.048Z,8.77
2024-01-21T21:01:52.670Z,8.49
2024-01-21T21:04:19.954Z,8.34
2024-01-21T21:06:46.697Z,8.47
2024-01-21T21:09:13.954Z,8.75
2024-01-21T21:11:40.673Z,8.36
2024-01-21T21:14:08.013Z,8.47
2024-01-21T21:16:34.582Z,8.93
2024-01-21T21:19:02.698Z,8.22
2024-01-21T21:21:29.410Z,8.85
2024-01-21T21:23:56.009Z,8.41
2024-01-21T21:26:23.144Z,8.16
2024-01-21T21:28:49.732Z,8.43
2024-01-21T21:31:16.377Z,8.25
2024-01-21T21:33:44.852Z,7.90
2024-01-21T21:36:12.009Z,8.39
2024-01-21T21:38:38.741Z,8.11
2024-01-21T21:41:05.470Z,7.79
2024-01-21T21:43:32.117Z,7.87
2024-01-21T21:45:58.728Z,8.23
2024-01-21T21:48:25.418Z,8.57
2024-01-21T21:50:52.444Z,8.02
2024-01-21T21:53:19.320Z,7.90
2024-01-21T21:55:46.810Z,8.03
2024-01-21T21:58:13.948Z,8.28
2024-01-21T22:00:41.780Z,8.35
2024-01-21T22:03:09.339Z,7.96
2024-01-21T22:05:36.223Z,8.04
2024-01-21T22:08:02.835Z,8.12
2024-01-21T22:10:29.650Z,7.52
2024-01-21T22:12:56.409Z,7.72
2024-01-21T22:15:23.029Z,7.63
2024-01-21T22:17:50.078Z,7.78
2024-01-21T22:20:17.481Z,7.36
2024-01-21T22:22:44.123Z,7.54
2024-01-21T22:25:11.236Z,7.49
2024-01-21T22:27:37.839Z,7.64
2024-01-21T22:30:04.945Z,7.34
2024-01-21T22:32:31.672Z,7.35
2024-01-21T22:34:58.386Z,7.43
2024-01-21T22:37:25.046Z,7.25
2024-01-21T22:39:51.663Z,7.18
2024-01-21T22:42:18.237Z,7.17
2024-01-21T22:44:46.098Z,7.40
2024-01-21T22:47:12.963Z,7.25
2024-01-21T22:49:39.845Z,7.30
2024-01-21T22:52:07.217Z,7.12
2024-01-21T22:54:33.910Z,6.93
2024-01-21T22:57:00.519Z,6.93
2024-01-21T22:59:27.133Z,6.92
2024-01-21T23:01:53.782Z,6.74
2024-01-21T23:04:22.722Z,6.75
2024-01-21T23:06:49.284Z,7.02
2024-01-21T23:09:16.112Z,6.85
2024-01-21T23:11:42.742Z,6.85
2024-01-21T23:14:09.332Z,6.74
2024-01-21T23:16:36.137Z,6.86
2024-01-21T23:19:02.878Z,6.75
2024-01-21T23:21:29.556Z,6.34
2024-01-21T23:23:56.188Z,6.84
2024-01-21T23:26:22.845Z,6.69
2024-01-21T23:28:49.417Z,6.49
2024-01-21T23:31:16.100Z,6.60
2024-01-21T23:33:42.886Z,6.27
2024-01-21T23:36:12.592Z,6.62
2024-01-21T23:38:39.250Z,6.57
2024-01-21T23:41:07.422Z,6.06
2024-01-21T23:43:34.171Z,6.41
2024-01-21T23:46:03.531Z,6.03
2024-01-21T23:48:31.413Z,6.04
2024-01-21T23:50:59.144Z,6.20
2024-01-21T23:53:25.843Z,5.99
2024-01-21T23:55:52.456Z,6.09
2024-01-21T23:58:19.104Z,5.49
